Daytona Beach, FL (32115)

3:16 PM EDT on September 03, 2015 (GMT -0400)
Holly Hill | | Change Station
CLOSE
Current Station
Personal Weather Station
Location: Daytona Beach, FL
Elevation: 12 ft
Nearby Weather Stations

Elev 12 ft 29.23 °N, 81.05 °W | Updated 10 minutes ago

Partly Cloudy
Partly Cloudy
90.3 °F
Feels Like 105 °F
N
1.7
Wind Variable Wind from WSW

Today
High -- | Low -- °F
--% Chance of Precip.
Yesterday
High -- | Low -- °F
Precip. -- in
7:02 AM 7:43 PM
Waning Gibbous, 67% visible
Pressure 29.94 in
Visibility 10.0 miles
Clouds Scattered Clouds 4500 ft
Mostly Cloudy 6000 ft
Heat Index 105 °F
Dew Point 78 °F
Humidity 68%
Rainfall 0.00 in
Snow Depth Not available.
UV 6 out of 12
Pollen 7.20 out of 12
Air Quality Not available.
Flu Activity Not available.
METAR KDAB 031853Z 32006KT 10SM SCT045 BKN060 33/23 A2994 RMK AO2 SLP138 T03280228
Pressure 29.94 in
Visibility 10.0 miles
Clouds Scattered Clouds 4500 ft
Mostly Cloudy 6000 ft
Heat Index 105 °F
Dew Point 78 °F
Humidity 68%
Rainfall 0.00 in
Snow Depth Not available.
UV 6 out of 12
Pollen 7.20 out of 12
Air Quality Not available.
Flu Activity Not available.
METAR KDAB 031853Z 32006KT 10SM SCT045 BKN060 33/23 A2994 RMK AO2 SLP138 T03280228
Nowcast | as of 1:49 PM EDT on September 3, 2015

Isolated to scattered showers and storms will develop and move eastward around 10 to 15 mph across portions of the region into mid afternoon. Best chance for this activity will be from Lake County eastward toward Volusia County and also near the East Coast...south of Melbourne. Any storms that develop will produce dangerous cloud to ground lightning...gusty winds up to 35 to 40 mph and locally heavy rainfall. Additional details...including graphics are available online at: http://www.Srh.NOAA.Gov/mlb/blog.Php

×

10-Day Weather Forecast

×

Almanac

Astronomy

Sep. 03, 2015 Rise Set
Actual Time
Civil Twilight
Nautical Twilight
Astronomical Twilight
Moon
Length of Visible Light
Length of Day
Tomorrow will be .
, % of the Moon is Illuminated

Today's Extremes

State Highs State Lows

Community

WunderPhotos

Upload Photos

1,852,014 photos uploaded!

WunderBlogs® & News

Nearby

Air Quality

  Air Quality AQ Index Pollutant
Not available.

Snow Depth

Station Depth Elevation

Earthquake Activity

City Distance Mag. Time & Date
Minimum magnitude displayed is 2.5.

Coastal Water Temperatures

Place Temperature

Stations

Nearby Weather Stations

Station Location Temp. Windchill Dew Point Humidity Wind Precip. Elev Updated Type